createdAt,value
2023-03-20T00:00:17.417Z,37.3523
2023-03-20T00:01:19.071Z,37.3385
2023-03-20T00:02:20.724Z,37.3300
2023-03-20T00:03:22.393Z,37.3331
2023-03-20T00:04:24.050Z,37.3238
2023-03-20T00:05:25.648Z,37.2785
2023-03-20T00:06:27.302Z,37.2485
2023-03-20T00:07:28.978Z,37.2162
2023-03-20T00:08:30.605Z,37.2223
2023-03-20T00:09:32.247Z,37.2215
2023-03-20T00:10:33.901Z,37.1792
2023-03-20T00:11:35.559Z,37.1469
2023-03-20T00:12:37.224Z,37.1292
2023-03-20T00:13:38.848Z,37.0908
2023-03-20T00:14:41.489Z,37.0877
2023-03-20T00:15:42.216Z,37.0415
2023-03-20T00:16:43.848Z,37.0546
2023-03-20T00:17:45.491Z,37.0315
2023-03-20T00:18:47.100Z,37.0077
2023-03-20T00:19:48.809Z,36.9815
2023-03-20T00:20:50.432Z,36.9454
2023-03-20T00:21:52.061Z,36.9415
2023-03-20T00:22:53.755Z,36.9431
2023-03-20T00:23:55.358Z,36.9085
2023-03-20T00:24:57.025Z,36.8946
2023-03-20T00:25:58.672Z,36.8785
2023-03-20T00:27:00.302Z,36.8338
2023-03-20T00:28:01.968Z,36.8462
2023-03-20T00:29:03.605Z,36.8623
2023-03-20T00:30:05.262Z,36.8285
2023-03-20T00:31:06.922Z,36.8346
2023-03-20T00:32:08.519Z,36.7708
2023-03-20T00:33:10.228Z,36.7754
2023-03-20T00:34:11.816Z,36.7900
2023-03-20T00:35:13.465Z,36.7792
2023-03-20T00:36:15.175Z,36.7300
2023-03-20T00:37:16.792Z,36.7385
2023-03-20T00:38:18.451Z,36.7315
2023-03-20T00:39:20.102Z,36.7008
2023-03-20T00:40:21.740Z,36.6685
2023-03-20T00:41:23.391Z,36.6654
2023-03-20T00:42:25.061Z,36.6485
2023-03-20T00:43:26.706Z,36.6377
2023-03-20T00:44:28.323Z,36.6154
2023-03-20T00:45:29.947Z,36.5908
2023-03-20T00:46:31.599Z,36.5808
2023-03-20T00:47:33.241Z,36.5769
2023-03-20T00:48:34.946Z,36.5462
2023-03-20T00:49:36.568Z,36.5869
2023-03-20T00:50:38.199Z,36.5554
2023-03-20T00:51:39.841Z,36.5485
2023-03-20T00:52:41.512Z,36.5192
2023-03-20T00:53:43.151Z,36.5400
2023-03-20T00:54:44.786Z,36.5208
2023-03-20T00:55:46.446Z,36.4769
2023-03-20T00:56:48.080Z,36.4746
2023-03-20T00:57:49.731Z,36.5069
2023-03-20T00:58:51.400Z,36.5108
2023-03-20T00:59:53.057Z,36.4662
2023-03-20T01:00:54.721Z,36.4415
2023-03-20T01:01:56.345Z,36.4631
2023-03-20T01:02:58.003Z,36.4569
2023-03-20T01:03:59.675Z,36.4408
2023-03-20T01:05:01.360Z,36.3600
2023-03-20T01:06:02.947Z,36.3546
2023-03-20T01:07:04.595Z,36.3331
2023-03-20T01:08:06.241Z,36.3392
2023-03-20T01:09:07.904Z,36.3177
2023-03-20T01:10:09.535Z,36.3146
2023-03-20T01:11:11.319Z,36.3238
2023-03-20T01:12:12.828Z,36.3108
2023-03-20T01:13:14.462Z,36.3131
2023-03-20T01:14:16.143Z,36.2892
2023-03-20T01:15:17.788Z,36.2646
2023-03-20T01:16:19.479Z,36.2923
2023-03-20T01:17:21.254Z,36.2408
2023-03-20T01:18:22.744Z,36.2346
2023-03-20T01:19:24.411Z,36.2531
2023-03-20T01:20:26.008Z,36.2115
2023-03-20T01:21:27.642Z,36.2154
2023-03-20T01:22:29.287Z,36.2077
2023-03-20T01:23:30.930Z,36.1869
2023-03-20T01:24:32.600Z,36.1869
2023-03-20T01:25:34.553Z,36.1808
2023-03-20T01:26:35.920Z,36.1315
2023-03-20T01:27:37.528Z,36.1492
2023-03-20T01:28:39.184Z,36.1308
2023-03-20T01:29:40.878Z,36.1331
2023-03-20T01:30:42.504Z,36.1331
2023-03-20T01:31:44.164Z,36.1123
2023-03-20T01:32:45.794Z,36.1131
2023-03-20T01:33:47.427Z,36.0985
2023-03-20T01:34:49.115Z,36.0762
2023-03-20T01:35:50.809Z,36.0815
2023-03-20T01:36:52.395Z,36.0554
2023-03-20T01:37:54.121Z,36.0523
2023-03-20T01:38:55.793Z,36.0646
2023-03-20T01:39:57.441Z,36.0769
2023-03-20T01:40:59.064Z,36.0685
2023-03-20T01:42:00.714Z,36.0831
2023-03-20T01:43:02.373Z,36.0685
2023-03-20T01:44:04.015Z,36.0046
2023-03-20T01:45:05.697Z,35.9823
2023-03-20T01:46:07.316Z,35.9438
2023-03-20T01:47:08.941Z,35.9238
2023-03-20T01:48:10.586Z,35.9162
2023-03-20T01:49:12.233Z,35.9500
2023-03-20T01:50:13.945Z,35.9423
2023-03-20T01:51:15.549Z,35.9915
2023-03-20T01:52:17.215Z,35.9962
2023-03-20T01:53:18.859Z,35.9685
2023-03-20T01:54:20.528Z,35.9315
2023-03-20T01:55:22.204Z,35.9092
2023-03-20T01:56:23.837Z,35.9185
2023-03-20T01:57:25.464Z,35.9231
2023-03-20T01:58:27.117Z,35.9138
2023-03-20T01:59:28.768Z,35.9054
2023-03-20T02:00:30.440Z,35.8846
2023-03-20T02:01:32.143Z,35.8923
2023-03-20T02:02:33.723Z,35.8638
2023-03-20T02:03:35.351Z,35.8462
2023-03-20T02:04:37.059Z,35.8615
2023-03-20T02:05:38.715Z,35.8938
2023-03-20T02:06:40.343Z,35.8662
2023-03-20T02:07:41.976Z,35.8269
2023-03-20T02:08:43.613Z,35.7869
2023-03-20T02:09:45.246Z,35.7838
2023-03-20T02:10:46.924Z,35.8046
2023-03-20T02:11:48.542Z,35.8262
2023-03-20T02:12:50.203Z,35.8223
2023-03-20T02:13:51.874Z,35.7992
2023-03-20T02:14:53.508Z,35.7731
2023-03-20T02:15:55.172Z,35.7269
2023-03-20T02:16:56.833Z,35.7123
2023-03-20T02:17:58.448Z,35.7415
2023-03-20T02:19:00.128Z,35.7192
2023-03-20T02:20:01.757Z,35.7246
2023-03-20T02:21:03.420Z,35.7446
2023-03-20T02:22:05.047Z,35.7654
2023-03-20T02:23:06.736Z,35.7008
2023-03-20T02:24:08.374Z,35.6838
2023-03-20T02:25:10.047Z,35.6738
2023-03-20T02:26:11.704Z,35.6723
2023-03-20T02:27:13.326Z,35.6877
2023-03-20T02:28:14.963Z,35.7085
2023-03-20T02:29:16.610Z,35.6300
2023-03-20T02:30:18.288Z,35.6600
2023-03-20T02:31:19.947Z,35.6377
2023-03-20T02:32:21.553Z,35.6385
2023-03-20T02:33:23.208Z,35.6508
2023-03-20T02:34:24.852Z,35.6746
2023-03-20T02:35:26.507Z,35.6646
2023-03-20T02:36:28.174Z,35.6454
2023-03-20T02:37:29.785Z,35.6323
2023-03-20T02:38:31.456Z,35.6154
2023-03-20T02:39:33.110Z,35.6215
2023-03-20T02:40:34.765Z,35.6592
2023-03-20T02:41:36.467Z,35.6238
2023-03-20T02:42:38.015Z,35.5885
2023-03-20T02:43:39.696Z,35.5838
2023-03-20T02:44:41.319Z,35.5854
2023-03-20T02:45:42.992Z,35.5746
2023-03-20T02:46:44.653Z,35.5785
2023-03-20T02:47:46.277Z,35.5415
2023-03-20T02:48:47.926Z,35.5638
2023-03-20T02:49:49.620Z,35.5585
2023-03-20T02:50:51.313Z,35.5623
2023-03-20T02:51:52.963Z,35.5500
2023-03-20T02:52:54.658Z,35.5731
2023-03-20T02:53:56.215Z,35.5677
2023-03-20T02:54:57.854Z,35.5446
2023-03-20T02:55:59.507Z,35.5315
2023-03-20T02:57:01.182Z,35.5323
2023-03-20T02:58:02.797Z,35.5062
2023-03-20T02:59:04.440Z,35.5285
2023-03-20T03:00:06.109Z,35.5769
2023-03-20T03:01:07.795Z,35.5746
2023-03-20T03:02:09.459Z,35.5362
2023-03-20T03:03:11.096Z,35.5385
2023-03-20T03:04:12.709Z,35.5385
2023-03-20T03:05:14.354Z,35.5369
2023-03-20T03:06:16.011Z,35.5315
2023-03-20T03:07:17.685Z,35.5323
2023-03-20T03:08:19.301Z,35.4938
2023-03-20T03:09:20.978Z,35.5023
2023-03-20T03:10:22.620Z,35.5362
2023-03-20T03:11:24.248Z,35.5346
2023-03-20T03:12:25.929Z,35.5308
2023-03-20T03:13:27.554Z,35.5277
2023-03-20T03:14:29.223Z,35.5331
2023-03-20T03:15:30.879Z,35.5269
2023-03-20T03:16:32.517Z,35.5092
2023-03-20T03:17:34.190Z,35.5346
2023-03-20T03:18:35.829Z,35.5331
2023-03-20T03:19:37.462Z,35.5523
2023-03-20T03:20:39.089Z,35.5592
2023-03-20T03:21:40.735Z,35.5169
2023-03-20T03:22:42.427Z,35.5015
2023-03-20T03:23:44.074Z,35.4969
2023-03-20T03:24:45.706Z,35.5031
2023-03-20T03:25:47.360Z,35.5146
2023-03-20T03:26:49.010Z,35.5123
2023-03-20T03:27:50.668Z,35.4923
2023-03-20T03:28:52.308Z,35.4931
2023-03-20T03:29:54.041Z,35.5315
2023-03-20T03:30:55.589Z,35.5200
2023-03-20T03:31:57.220Z,35.5154
2023-03-20T03:32:58.977Z,35.5346
2023-03-20T03:34:00.551Z,35.5185
2023-03-20T03:35:02.176Z,35.5085
2023-03-20T03:36:03.881Z,35.5123
2023-03-20T03:37:05.465Z,35.5100
2023-03-20T03:38:07.124Z,35.5277
2023-03-20T03:39:08.762Z,35.5015
2023-03-20T03:40:10.873Z,35.4969
2023-03-20T03:41:12.061Z,35.4900
2023-03-20T03:42:13.706Z,35.5123
2023-03-20T03:43:15.369Z,35.4531
2023-03-20T03:44:16.995Z,35.4538
2023-03-20T03:45:18.660Z,35.4492
2023-03-20T03:46:20.301Z,35.4762
2023-03-20T03:47:21.960Z,35.4931
2023-03-20T03:48:23.598Z,35.4577
2023-03-20T03:49:25.256Z,35.4808
2023-03-20T03:50:26.909Z,35.4738
2023-03-20T03:51:28.563Z,35.4769
2023-03-20T03:52:30.222Z,35.5169
2023-03-20T03:53:31.910Z,35.5192
2023-03-20T03:54:33.505Z,35.4915
2023-03-20T03:55:35.461Z,35.5031
2023-03-20T03:56:36.764Z,35.5000
2023-03-20T03:57:38.413Z,35.5062
2023-03-20T03:58:40.094Z,35.5046
2023-03-20T03:59:41.740Z,35.5008
2023-03-20T04:00:43.395Z,35.5100
2023-03-20T04:01:45.039Z,35.5285
2023-03-20T04:02:46.670Z,35.5362
2023-03-20T04:03:48.352Z,35.5131
2023-03-20T04:04:50.048Z,35.5146
2023-03-20T04:05:51.652Z,35.5400
2023-03-20T04:06:53.282Z,35.5385
2023-03-20T04:07:54.919Z,35.5300
2023-03-20T04:08:56.591Z,35.5292
2023-03-20T04:09:58.228Z,35.5108
2023-03-20T04:10:59.877Z,35.4946
2023-03-20T04:12:01.530Z,35.5085
2023-03-20T04:13:03.170Z,35.5200
2023-03-20T04:14:04.852Z,35.5154
2023-03-20T04:15:06.463Z,35.5223
2023-03-20T04:16:08.125Z,35.5615
2023-03-20T04:17:09.778Z,35.5608
2023-03-20T04:18:11.380Z,35.5369
2023-03-20T04:19:13.057Z,35.5185
2023-03-20T04:20:14.688Z,35.5400
2023-03-20T04:21:16.336Z,35.4985
2023-03-20T04:22:17.974Z,35.4854
2023-03-20T04:23:19.626Z,35.5000
2023-03-20T04:24:21.281Z,35.5008
2023-03-20T04:25:22.942Z,35.4923
2023-03-20T04:26:24.566Z,35.4962
2023-03-20T04:27:26.212Z,35.5062
2023-03-20T04:28:27.888Z,35.4785
2023-03-20T04:29:29.540Z,35.4769
2023-03-20T04:30:31.209Z,35.4738
2023-03-20T04:31:32.923Z,35.4338
2023-03-20T04:32:34.487Z,35.4746
2023-03-20T04:33:36.134Z,35.4692
2023-03-20T04:34:37.773Z,35.4792
2023-03-20T04:35:39.678Z,35.4954
2023-03-20T04:36:41.092Z,35.4846
2023-03-20T04:37:42.748Z,35.4654
2023-03-20T04:38:44.391Z,35.4746
2023-03-20T04:39:46.069Z,35.4792
2023-03-20T04:40:47.697Z,35.5008
2023-03-20T04:41:49.365Z,35.4969
2023-03-20T04:42:50.993Z,35.4585
2023-03-20T04:43:52.642Z,35.4762
2023-03-20T04:44:54.277Z,35.4938
2023-03-20T04:45:55.948Z,35.4769
2023-03-20T04:46:57.590Z,35.4723
2023-03-20T04:47:59.235Z,35.4731
2023-03-20T04:49:00.888Z,35.4831
2023-03-20T04:50:02.567Z,35.4354
2023-03-20T04:51:04.183Z,35.4262
2023-03-20T04:52:05.836Z,35.4508
2023-03-20T04:53:07.460Z,35.4777
2023-03-20T04:54:09.108Z,35.4415
2023-03-20T04:55:10.816Z,35.4077
2023-03-20T04:56:12.413Z,35.4246
2023-03-20T04:57:14.076Z,35.4338
2023-03-20T04:58:15.712Z,35.4108
2023-03-20T04:59:17.361Z,35.4115
2023-03-20T05:00:19.053Z,35.3808
2023-03-20T05:01:20.733Z,35.3469
2023-03-20T05:02:22.369Z,35.3546
2023-03-20T05:03:24.310Z,35.3192
2023-03-20T05:04:25.724Z,35.3338
2023-03-20T05:05:27.314Z,35.3500
2023-03-20T05:06:28.948Z,35.3377
2023-03-20T05:07:30.593Z,35.3254
2023-03-20T05:08:32.258Z,35.3415
2023-03-20T05:09:33.886Z,35.3131
2023-03-20T05:10:35.558Z,35.3331
2023-03-20T05:11:37.161Z,35.3377
2023-03-20T05:12:38.820Z,35.3208
2023-03-20T05:13:40.479Z,35.3354
2023-03-20T05:14:42.121Z,35.3308
2023-03-20T05:15:43.786Z,35.3092
2023-03-20T05:16:46.225Z,35.3154
2023-03-20T05:17:47.252Z,35.3154
2023-03-20T05:18:48.714Z,35.2977
2023-03-20T05:19:50.362Z,35.3085
2023-03-20T05:20:52.068Z,35.3000
2023-03-20T05:21:53.658Z,35.2669
2023-03-20T05:22:55.320Z,35.2862
2023-03-20T05:23:56.967Z,35.3223
2023-03-20T05:24:58.620Z,35.3685
2023-03-20T05:26:00.319Z,35.4031
2023-03-20T05:27:01.933Z,35.4915
2023-03-20T05:28:03.578Z,35.4785
2023-03-20T05:29:05.222Z,35.5192
2023-03-20T05:30:06.881Z,35.5738
2023-03-20T05:31:08.626Z,35.6485
2023-03-20T05:32:10.189Z,35.6215
2023-03-20T05:33:11.911Z,35.6992
2023-03-20T05:34:13.548Z,35.7185
2023-03-20T05:35:15.136Z,35.7669
2023-03-20T05:36:16.831Z,35.8046
2023-03-20T05:37:18.449Z,35.9738
2023-03-20T05:38:20.096Z,35.8792
2023-03-20T05:39:21.743Z,36.0062
2023-03-20T05:40:23.392Z,36.0354
2023-03-20T05:41:25.154Z,35.9400
2023-03-20T05:42:26.742Z,36.0015
2023-03-20T05:43:28.405Z,36.0385
2023-03-20T05:44:30.030Z,36.1800
2023-03-20T05:45:31.677Z,36.3554
2023-03-20T05:46:33.449Z,36.3977
2023-03-20T05:47:34.977Z,36.3323
2023-03-20T05:48:36.667Z,36.2600
2023-03-20T05:49:38.310Z,36.3808
2023-03-20T05:50:39.920Z,36.3100
2023-03-20T05:51:41.605Z,36.2438
2023-03-20T05:52:43.225Z,36.1677
2023-03-20T05:53:44.895Z,36.1546
2023-03-20T05:54:46.535Z,36.1000
2023-03-20T05:55:48.185Z,36.0638
2023-03-20T05:56:49.989Z,36.0877
2023-03-20T05:57:51.487Z,36.0800
2023-03-20T05:58:53.172Z,36.0692
2023-03-20T05:59:54.829Z,36.0623
2023-03-20T06:00:56.464Z,36.0969
2023-03-20T06:01:58.141Z,36.0746
2023-03-20T06:02:59.848Z,36.0762
2023-03-20T06:04:01.430Z,36.0385
2023-03-20T06:05:03.063Z,36.0631
2023-03-20T06:06:04.741Z,36.0469
2023-03-20T06:07:06.369Z,36.0685
2023-03-20T06:08:08.075Z,36.0915
2023-03-20T06:09:09.655Z,36.1008
2023-03-20T06:10:11.297Z,36.1000
2023-03-20T06:11:12.929Z,36.1192
2023-03-20T06:12:14.608Z,36.1254
2023-03-20T06:13:16.251Z,36.2415
2023-03-20T06:14:17.908Z,36.2777
2023-03-20T06:15:19.543Z,36.2269
2023-03-20T06:16:21.298Z,36.1715
2023-03-20T06:17:22.865Z,36.1415
2023-03-20T06:18:24.491Z,36.1477
2023-03-20T06:19:26.149Z,36.1177
2023-03-20T06:20:27.794Z,36.0923
2023-03-20T06:21:29.413Z,36.0654
2023-03-20T06:22:31.093Z,36.0631
2023-03-20T06:23:32.774Z,36.0815
2023-03-20T06:24:34.542Z,36.0692
2023-03-20T06:25:36.348Z,36.0662
2023-03-20T06:26:37.713Z,36.0638
2023-03-20T06:27:39.383Z,36.0346
2023-03-20T06:28:41.051Z,36.0362
2023-03-20T06:29:42.673Z,36.0531
2023-03-20T06:30:44.331Z,36.0469
2023-03-20T06:31:45.966Z,36.0392
2023-03-20T06:32:47.686Z,36.0538
2023-03-20T06:33:49.259Z,36.0254
2023-03-20T06:34:50.905Z,36.0108
2023-03-20T06:35:52.628Z,36.0069
2023-03-20T06:36:54.246Z,36.0231
2023-03-20T06:37:55.869Z,36.0262
2023-03-20T06:38:57.530Z,36.0138
2023-03-20T06:39:59.159Z,36.0108
2023-03-20T06:41:00.876Z,35.9885
2023-03-20T06:42:02.481Z,35.9831
2023-03-20T06:43:04.574Z,35.9408
2023-03-20T06:44:06.084Z,35.9777
2023-03-20T06:45:07.624Z,35.9677
2023-03-20T06:46:09.263Z,35.9400
2023-03-20T06:47:10.954Z,35.9300
2023-03-20T06:48:12.498Z,35.9346
2023-03-20T06:49:14.063Z,35.9277
2023-03-20T06:50:15.770Z,35.9246
2023-03-20T06:51:17.696Z,35.9354
2023-03-20T06:52:19.111Z,35.9200
2023-03-20T06:53:20.684Z,35.8838
2023-03-20T06:54:22.318Z,35.8938
2023-03-20T06:55:24.262Z,35.7569
